Main page
METAR-TAF:

METAR-TAF

Airports :

Base de Almagro

Almagro, Spain

latitude: 38-57-11N, longitude: 3-44-29W, elevation: 629 m

Current weather observation

The report was made 6 hours and 10 minutes ago, at 21:00 UTC
Wind 5 kt from the West/Southwest, varying between South/Southwest and West
Temperature 8°C
Humidity 87%
Pressure 1020 hPa
Visibility 10 km or more
no clouds below 1500 m and no cumulonimbus

METAR: LEAO 252100Z 24005KT 200V280 CAVOK 08/06 Q1020

Time: 05:10 (03:10 UTC)

Forecast

The report was made 10 hours and 10 minutes ago, at 17:00 UTC
Forecast valid from 25 at 18 UTC to 26 at 03 UTC
Wind 10 kt from the West
Visibility 10 km or more
Scattered clouds at a height of 2000 ft
Scattered clouds at a height of 3500 ft
Probability 30% :
Temporary
from 25 at 18 UTC to 25 at 19 UTC
Few clouds at a height of 2500 ft, Towering cumulus.

TAF: LEAO 251700Z 2518/2603 26010KT 9999 SCT020 SCT035 PROB30 TEMPO 2518/2519 FEW025TCU

Weather observations and forecasts of more than 4000 airports (METAR and TAF reports).

The available stations are represented by yellow and red dots on the map.

Hover mouse over dot to see the name of the station.

Then click to see weather observations and forecasts.

To change the map : click on the green buttons with a black cross to zoom in, on the green button with a dash to zoom out, or on the green arrows for adjacent maps.


METAR-TAF: